Flight Track Log - Related Links

Times and Time Zones

All times are in EDT time to prevent confusion due to time zone crossing. See the N642TD flight status page for this flight to view local times or setup timezone preferences in your user account.

Time Position Orientation Groundspeed Altitude Reporting Facility
EDT Latitude Longitude Course Direction KTS MPH feet Rate Location/Type
Fri 04:28:26 PM 37.7158 -97.2758 243° Southwest 142 163 4,700  Level Kansas City Center
Fri 04:28:56 PM 37.7075 -97.2936 239° Southwest 131 151 5,600 2,164 Climbing Kansas City Center
Fri 04:29:27 PM 37.7081 -97.3247 271° West 151 174 6,900 2,226 Climbing Kansas City Center
Fri 04:29:58 PM 37.7100 -97.3447 277° West 142 163 7,900 2,066 Climbing Kansas City Center
Fri 04:30:28 PM 37.7106 -97.3719 271° West 134 154 9,000 1,839 Climbing Kansas City Center
Fri 04:31:00 PM 37.7133 -97.3928 280° West 138 159 9,800 1,660 Climbing Kansas City Center
Fri 04:32:02 PM 37.7175 -97.4428 276° West 144 166 11,600 1,790 Climbing Kansas City Center
Fri 04:33:04 PM 37.7217 -97.4958 276° West 150 173 13,500 1,935 Climbing Kansas City Center
Fri 04:34:06 PM 37.7261 -97.5514 276° West 147 169 15,600 1,694 Climbing Kansas City Center
Fri 04:35:08 PM 37.7292 -97.6061 274° West 153 176 17,000 1,161 Climbing Kansas City Center
Fri 04:36:10 PM 37.7358 -97.6839 276° West 177 204 18,000 532 Climbing Kansas City Center
Fri 04:37:12 PM 37.7408 -97.7628 275° West 210 242 18,100  Climbing Kansas City Center
Fri 04:38:14 PM 37.7467 -97.8481 275° West 237 273 18,000 -48 Descending Kansas City Center
Fri 04:39:16 PM 37.7536 -97.9344 276° West 246 283 18,000  Level Kansas City Center
Fri 04:40:18 PM 37.7592 -98.0222 275° West 249 287 18,000  Level Kansas City Center
Fri 04:41:20 PM 37.7664 -98.1081 276° West 247 284 18,000  Level Kansas City Center
Fri 04:42:22 PM 37.7739 -98.2094 275° West 248 285 18,000  Level Kansas City Center
Fri 04:43:24 PM 37.7800 -98.2967 275° West 248 285 18,000  Level Kansas City Center
Fri 04:44:26 PM 37.7861 -98.3831 275° West 247 284 18,000  Level Kansas City Center
Fri 04:45:28 PM 37.7925 -98.4711 275° West 250 288 18,000  Level Kansas City Center
Fri 04:46:30 PM 37.7972 -98.5581 274° West 249 287 18,000  Level Kansas City Center
Fri 04:47:32 PM 37.8028 -98.6456 275° West 248 285 18,000  Level Kansas City Center
Fri 04:48:34 PM 37.8094 -98.7331 276° West 249 287 18,000  Level Kansas City Center
Fri 04:49:36 PM 37.8161 -98.8389 275° West 251 289 18,000  Level Kansas City Center
Fri 04:50:38 PM 37.8219 -98.9269 275° West 251 289 18,000  Level Kansas City Center
Fri 04:51:40 PM 37.8269 -99.0156 274° West 252 290 18,000  Level Kansas City Center
Fri 04:52:42 PM 37.8336 -99.1031 276° West 250 288 18,000  Level Kansas City Center
Fri 04:53:45 PM 37.8383 -99.1919 274° West 252 290 18,000  Level Kansas City Center
Fri 04:54:47 PM 37.8431 -99.2811 274° West 252 290 18,000  Level Kansas City Center
Fri 04:55:49 PM 37.8500 -99.3875 275° West 253 291 18,000  Level Kansas City Center
Fri 04:56:51 PM 37.8553 -99.4772 274° West 256 295 18,000  Level Kansas City Center
Fri 04:57:53 PM 37.8611 -99.5706 275° West 253 291 18,000  Level Kansas City Center
Fri 04:58:55 PM 37.8653 -99.6550 274° West 252 290 18,000  Level Kansas City Center
Fri 04:59:57 PM 37.8714 -99.7542 274° West 253 291 18,000 -339 Level Kansas City Center
Fri 05:00:59 PM 37.8764 -99.8372 274° West 250 288 17,300 -968 Descending Kansas City Center
Fri 05:02:01 PM 37.8822 -99.9414 274° West 261 300 16,000 -1,065 Descending Kansas City Center
Fri 05:03:03 PM 37.8878 -100.0247 275° West 253 291 15,100 -823 Descending Kansas City Center
Fri 05:04:05 PM 37.8925 -100.1194 274° West 244 281 14,300 -774 Descending Kansas City Center
Fri 05:05:07 PM 37.8978 -100.1997 275° West 240 276 13,500 -823 Descending Kansas City Center
Fri 05:06:09 PM 37.9028 -100.2917 274° West 237 273 12,600 -919 Descending Kansas City Center
Fri 05:07:11 PM 37.9100 -100.3689 277° West 233 268 11,600 -1,306 Descending Kansas City Center
Fri 05:08:13 PM 37.9394 -100.4572 293° West 240 276 9,900 -1,839 Descending Kansas City Center
Fri 05:09:15 PM 37.9600 -100.5333 289° West 240 276 7,800 -2,323 Descending Kansas City Center
Fri 05:10:17 PM 37.9597 -100.6183 270° West 224 258 5,100 -1,597 Descending Kansas City Center
Fri 05:11:19 PM 37.9589 -100.6719 269° West 209 241 4,500 -581 Descending Kansas City Center

Login

Don't have an account? Register now (free) for customized features, flight alerts, and more!